sensor_id;sensor_type;location;lat;lon;timestamp;P1;durP1;ratioP1;P2;durP2;ratioP2
39324;SDS011;25037;49.488;9.900;2022-12-16T00:00:23;45.45;;;23.63;;
39324;SDS011;25037;49.488;9.900;2022-12-16T00:02:50;38.17;;;21.10;;
39324;SDS011;25037;49.488;9.900;2022-12-16T00:05:15;43.55;;;23.58;;
39324;SDS011;25037;49.488;9.900;2022-12-16T00:07:43;41.85;;;22.30;;
39324;SDS011;25037;49.488;9.900;2022-12-16T00:10:08;41.42;;;21.23;;
39324;SDS011;25037;49.488;9.900;2022-12-16T00:12:34;39.58;;;22.63;;
39324;SDS011;25037;49.488;9.900;2022-12-16T00:14:59;44.00;;;23.63;;
39324;SDS011;25037;49.488;9.900;2022-12-16T00:17:25;41.47;;;23.15;;
39324;SDS011;25037;49.488;9.900;2022-12-16T00:19:50;42.90;;;22.38;;
39324;SDS011;25037;49.488;9.900;2022-12-16T00:22:16;40.00;;;21.35;;
39324;SDS011;25037;49.488;9.900;2022-12-16T00:24:42;40.88;;;21.17;;
39324;SDS011;25037;49.488;9.900;2022-12-16T00:27:07;40.67;;;22.02;;
39324;SDS011;25037;49.488;9.900;2022-12-16T00:29:33;37.92;;;21.27;;
39324;SDS011;25037;49.488;9.900;2022-12-16T00:31:58;35.80;;;19.85;;
39324;SDS011;25037;49.488;9.900;2022-12-16T00:34:24;30.55;;;18.20;;
39324;SDS011;25037;49.488;9.900;2022-12-16T00:36:49;36.53;;;20.00;;
39324;SDS011;25037;49.488;9.900;2022-12-16T00:39:15;32.70;;;18.65;;
39324;SDS011;25037;49.488;9.900;2022-12-16T00:41:41;36.17;;;18.50;;
39324;SDS011;25037;49.488;9.900;2022-12-16T00:44:07;33.80;;;18.30;;
39324;SDS011;25037;49.488;9.900;2022-12-16T00:46:33;35.78;;;18.38;;
39324;SDS011;25037;49.488;9.900;2022-12-16T00:48:59;30.00;;;16.20;;
39324;SDS011;25037;49.488;9.900;2022-12-16T00:51:24;29.92;;;17.00;;
39324;SDS011;25037;49.488;9.900;2022-12-16T00:53:50;24.60;;;14.05;;
39324;SDS011;25037;49.488;9.900;2022-12-16T00:56:16;26.70;;;15.27;;
39324;SDS011;25037;49.488;9.900;2022-12-16T00:58:44;21.67;;;13.45;;
39324;SDS011;25037;49.488;9.900;2022-12-16T01:01:10;20.90;;;11.88;;
39324;SDS011;25037;49.488;9.900;2022-12-16T01:03:36;22.92;;;12.85;;
39324;SDS011;25037;49.488;9.900;2022-12-16T01:06:15;22.17;;;12.13;;
39324;SDS011;25037;49.488;9.900;2022-12-16T01:08:41;24.30;;;13.77;;
39324;SDS011;25037;49.488;9.900;2022-12-16T01:11:12;20.38;;;11.82;;
39324;SDS011;25037;49.488;9.900;2022-12-16T01:13:41;21.55;;;12.05;;
39324;SDS011;25037;49.488;9.900;2022-12-16T01:16:07;19.95;;;11.23;;
39324;SDS011;25037;49.488;9.900;2022-12-16T01:18:33;23.52;;;12.65;;
39324;SDS011;25037;49.488;9.900;2022-12-16T01:21:03;20.35;;;11.27;;
39324;SDS011;25037;49.488;9.900;2022-12-16T01:23:29;20.63;;;10.80;;
39324;SDS011;25037;49.488;9.900;2022-12-16T01:25:56;20.17;;;11.48;;
39324;SDS011;25037;49.488;9.900;2022-12-16T01:28:23;20.50;;;11.27;;
39324;SDS011;25037;49.488;9.900;2022-12-16T01:30:48;23.48;;;12.63;;
39324;SDS011;25037;49.488;9.900;2022-12-16T01:33:18;27.38;;;14.63;;
39324;SDS011;25037;49.488;9.900;2022-12-16T01:35:44;29.25;;;15.32;;
39324;SDS011;25037;49.488;9.900;2022-12-16T01:38:09;23.33;;;13.52;;
39324;SDS011;25037;49.488;9.900;2022-12-16T01:40:35;25.88;;;14.38;;
39324;SDS011;25037;49.488;9.900;2022-12-16T01:43:00;22.00;;;13.73;;
39324;SDS011;25037;49.488;9.900;2022-12-16T01:45:30;21.25;;;12.43;;
39324;SDS011;25037;49.488;9.900;2022-12-16T01:48:20;20.80;;;12.02;;
39324;SDS011;25037;49.488;9.900;2022-12-16T01:50:46;19.83;;;12.40;;
39324;SDS011;25037;49.488;9.900;2022-12-16T01:53:13;23.15;;;12.32;;
39324;SDS011;25037;49.488;9.900;2022-12-16T01:55:40;22.65;;;12.02;;
39324;SDS011;25037;49.488;9.900;2022-12-16T01:58:11;21.23;;;11.73;;
39324;SDS011;25037;49.488;9.900;2022-12-16T02:00:41;17.33;;;10.02;;
39324;SDS011;25037;49.488;9.900;2022-12-16T02:03:07;18.00;;;9.40;;
39324;SDS011;25037;49.488;9.900;2022-12-16T02:05:35;18.17;;;10.35;;
39324;SDS011;25037;49.488;9.900;2022-12-16T02:10:40;14.82;;;8.52;;
39324;SDS011;25037;49.488;9.900;2022-12-16T02:13:30;17.00;;;9.35;;
39324;SDS011;25037;49.488;9.900;2022-12-16T02:32:27;11.82;;;7.82;;
39324;SDS011;25037;49.488;9.900;2022-12-16T02:37:57;14.27;;;7.70;;
39324;SDS011;25037;49.488;9.900;2022-12-16T02:45:59;14.27;;;7.07;;
39324;SDS011;25037;49.488;9.900;2022-12-16T02:48:25;13.13;;;6.85;;
39324;SDS011;25037;49.488;9.900;2022-12-16T02:50:50;12.90;;;6.95;;
39324;SDS011;25037;49.488;9.900;2022-12-16T02:53:17;12.57;;;6.35;;
39324;SDS011;25037;49.488;9.900;2022-12-16T03:04:30;10.60;;;6.07;;
39324;SDS011;25037;49.488;9.900;2022-12-16T03:07:12;10.65;;;5.35;;
39324;SDS011;25037;49.488;9.900;2022-12-16T03:09:41;7.68;;;4.75;;
39324;SDS011;25037;49.488;9.900;2022-12-16T03:12:10;9.98;;;5.28;;
39324;SDS011;25037;49.488;9.900;2022-12-16T03:14:38;8.20;;;4.10;;
39324;SDS011;25037;49.488;9.900;2022-12-16T03:17:07;8.27;;;4.18;;
39324;SDS011;25037;49.488;9.900;2022-12-16T03:19:33;8.48;;;3.92;;
39324;SDS011;25037;49.488;9.900;2022-12-16T03:22:02;7.28;;;4.05;;
39324;SDS011;25037;49.488;9.900;2022-12-16T03:24:38;7.55;;;4.05;;
39324;SDS011;25037;49.488;9.900;2022-12-16T03:29:56;7.05;;;3.60;;
39324;SDS011;25037;49.488;9.900;2022-12-16T03:32:37;7.10;;;3.85;;
39324;SDS011;25037;49.488;9.900;2022-12-16T03:35:13;8.52;;;4.47;;
39324;SDS011;25037;49.488;9.900;2022-12-16T03:37:52;7.55;;;4.35;;
39324;SDS011;25037;49.488;9.900;2022-12-16T03:40:19;6.35;;;4.05;;
39324;SDS011;25037;49.488;9.900;2022-12-16T03:42:46;7.70;;;4.20;;
39324;SDS011;25037;49.488;9.900;2022-12-16T03:45:14;7.78;;;3.72;;
39324;SDS011;25037;49.488;9.900;2022-12-16T03:47:47;7.20;;;3.55;;
39324;SDS011;25037;49.488;9.900;2022-12-16T03:50:14;7.70;;;4.03;;
39324;SDS011;25037;49.488;9.900;2022-12-16T03:52:40;8.18;;;3.85;;
39324;SDS011;25037;49.488;9.900;2022-12-16T03:55:05;6.03;;;3.60;;
39324;SDS011;25037;49.488;9.900;2022-12-16T03:57:31;7.13;;;3.88;;
39324;SDS011;25037;49.488;9.900;2022-12-16T03:59:57;6.63;;;3.88;;
39324;SDS011;25037;49.488;9.900;2022-12-16T04:02:22;6.60;;;3.50;;
39324;SDS011;25037;49.488;9.900;2022-12-16T04:04:47;7.55;;;4.25;;
39324;SDS011;25037;49.488;9.900;2022-12-16T04:07:13;6.38;;;3.50;;
39324;SDS011;25037;49.488;9.900;2022-12-16T04:09:45;6.45;;;4.00;;
39324;SDS011;25037;49.488;9.900;2022-12-16T04:12:11;6.90;;;3.55;;
39324;SDS011;25037;49.488;9.900;2022-12-16T04:14:55;6.95;;;3.22;;
39324;SDS011;25037;49.488;9.900;2022-12-16T04:20:26;7.20;;;3.58;;
39324;SDS011;25037;49.488;9.900;2022-12-16T04:23:14;6.72;;;3.92;;
39324;SDS011;25037;49.488;9.900;2022-12-16T04:25:58;6.88;;;4.07;;
39324;SDS011;25037;49.488;9.900;2022-12-16T04:28:24;7.25;;;3.65;;
39324;SDS011;25037;49.488;9.900;2022-12-16T04:30:49;6.35;;;3.80;;
39324;SDS011;25037;49.488;9.900;2022-12-16T04:33:15;8.15;;;3.65;;
39324;SDS011;25037;49.488;9.900;2022-12-16T04:35:59;6.63;;;3.58;;
39324;SDS011;25037;49.488;9.900;2022-12-16T04:38:43;5.78;;;3.15;;
39324;SDS011;25037;49.488;9.900;2022-12-16T04:41:28;5.65;;;3.15;;
39324;SDS011;25037;49.488;9.900;2022-12-16T04:44:12;6.38;;;3.53;;
39324;SDS011;25037;49.488;9.900;2022-12-16T04:46:57;6.32;;;3.30;;
39324;SDS011;25037;49.488;9.900;2022-12-16T04:49:41;5.25;;;3.38;;
39324;SDS011;25037;49.488;9.900;2022-12-16T04:52:25;6.40;;;3.28;;
39324;SDS011;25037;49.488;9.900;2022-12-16T04:55:09;7.43;;;3.83;;
39324;SDS011;25037;49.488;9.900;2022-12-16T04:57:55;7.30;;;3.15;;
39324;SDS011;25037;49.488;9.900;2022-12-16T05:00:40;6.57;;;3.28;;
39324;SDS011;25037;49.488;9.900;2022-12-16T05:03:25;5.93;;;3.42;;
39324;SDS011;25037;49.488;9.900;2022-12-16T05:06:10;5.43;;;2.90;;
39324;SDS011;25037;49.488;9.900;2022-12-16T05:08:55;7.32;;;3.15;;
39324;SDS011;25037;49.488;9.900;2022-12-16T05:11:39;5.63;;;3.00;;
39324;SDS011;25037;49.488;9.900;2022-12-16T05:14:23;8.52;;;3.05;;
39324;SDS011;25037;49.488;9.900;2022-12-16T05:17:07;6.30;;;3.05;;
39324;SDS011;25037;49.488;9.900;2022-12-16T05:19:52;6.20;;;2.97;;
39324;SDS011;25037;49.488;9.900;2022-12-16T05:22:36;6.30;;;3.60;;
39324;SDS011;25037;49.488;9.900;2022-12-16T05:28:04;7.60;;;4.13;;
39324;SDS011;25037;49.488;9.900;2022-12-16T05:30:49;9.35;;;4.82;;
39324;SDS011;25037;49.488;9.900;2022-12-16T05:33:33;12.13;;;5.47;;
39324;SDS011;25037;49.488;9.900;2022-12-16T05:36:18;11.48;;;5.10;;
39324;SDS011;25037;49.488;9.900;2022-12-16T05:39:02;8.73;;;4.47;;
39324;SDS011;25037;49.488;9.900;2022-12-16T05:41:46;6.60;;;3.88;;
39324;SDS011;25037;49.488;9.900;2022-12-16T05:44:30;8.05;;;3.45;;
39324;SDS011;25037;49.488;9.900;2022-12-16T05:49:58;5.85;;;3.10;;
39324;SDS011;25037;49.488;9.900;2022-12-16T05:52:53;7.30;;;4.03;;
39324;SDS011;25037;49.488;9.900;2022-12-16T05:55:38;10.05;;;3.90;;
39324;SDS011;25037;49.488;9.900;2022-12-16T05:58:22;4.72;;;2.97;;
39324;SDS011;25037;49.488;9.900;2022-12-16T06:01:07;7.38;;;3.55;;
39324;SDS011;25037;49.488;9.900;2022-12-16T06:03:52;8.93;;;3.53;;
39324;SDS011;25037;49.488;9.900;2022-12-16T06:06:37;8.82;;;4.18;;
39324;SDS011;25037;49.488;9.900;2022-12-16T06:09:21;6.85;;;4.00;;
39324;SDS011;25037;49.488;9.900;2022-12-16T06:12:05;6.28;;;3.45;;
39324;SDS011;25037;49.488;9.900;2022-12-16T06:14:50;6.00;;;3.58;;
39324;SDS011;25037;49.488;9.900;2022-12-16T06:17:34;7.85;;;3.33;;
39324;SDS011;25037;49.488;9.900;2022-12-16T06:20:19;7.22;;;3.50;;
39324;SDS011;25037;49.488;9.900;2022-12-16T06:23:03;7.43;;;3.85;;
39324;SDS011;25037;49.488;9.900;2022-12-16T06:25:48;7.00;;;3.50;;
39324;SDS011;25037;49.488;9.900;2022-12-16T06:28:32;8.43;;;4.00;;
39324;SDS011;25037;49.488;9.900;2022-12-16T06:31:16;6.88;;;3.50;;
39324;SDS011;25037;49.488;9.900;2022-12-16T06:34:01;7.43;;;3.58;;
39324;SDS011;25037;49.488;9.900;2022-12-16T06:36:46;10.00;;;4.43;;
39324;SDS011;25037;49.488;9.900;2022-12-16T06:39:30;8.80;;;4.40;;
39324;SDS011;25037;49.488;9.900;2022-12-16T06:42:14;8.82;;;4.07;;
39324;SDS011;25037;49.488;9.900;2022-12-16T06:44:58;6.15;;;2.83;;
39324;SDS011;25037;49.488;9.900;2022-12-16T06:50:27;7.03;;;3.15;;
39324;SDS011;25037;49.488;9.900;2022-12-16T06:53:11;7.38;;;3.63;;
39324;SDS011;25037;49.488;9.900;2022-12-16T06:55:56;7.25;;;3.47;;
39324;SDS011;25037;49.488;9.900;2022-12-16T06:58:40;6.30;;;3.08;;
39324;SDS011;25037;49.488;9.900;2022-12-16T07:01:24;7.13;;;3.25;;
39324;SDS011;25037;49.488;9.900;2022-12-16T07:04:08;7.30;;;3.42;;
39324;SDS011;25037;49.488;9.900;2022-12-16T07:06:52;9.57;;;3.95;;
39324;SDS011;25037;49.488;9.900;2022-12-16T07:09:37;7.75;;;3.40;;
39324;SDS011;25037;49.488;9.900;2022-12-16T07:12:21;6.15;;;3.35;;
39324;SDS011;25037;49.488;9.900;2022-12-16T07:15:05;7.75;;;3.60;;
39324;SDS011;25037;49.488;9.900;2022-12-16T07:17:50;6.85;;;3.70;;
39324;SDS011;25037;49.488;9.900;2022-12-16T07:20:34;6.97;;;3.83;;
39324;SDS011;25037;49.488;9.900;2022-12-16T07:23:18;7.57;;;3.75;;
39324;SDS011;25037;49.488;9.900;2022-12-16T07:26:02;7.38;;;4.03;;
39324;SDS011;25037;49.488;9.900;2022-12-16T07:28:46;6.50;;;3.40;;
39324;SDS011;25037;49.488;9.900;2022-12-16T07:31:30;5.47;;;3.17;;
39324;SDS011;25037;49.488;9.900;2022-12-16T07:34:14;7.57;;;3.00;;
39324;SDS011;25037;49.488;9.900;2022-12-16T07:36:58;7.25;;;3.20;;
39324;SDS011;25037;49.488;9.900;2022-12-16T07:39:42;5.75;;;3.03;;
39324;SDS011;25037;49.488;9.900;2022-12-16T07:42:26;5.32;;;2.70;;
39324;SDS011;25037;49.488;9.900;2022-12-16T07:45:10;5.60;;;2.72;;
39324;SDS011;25037;49.488;9.900;2022-12-16T07:47:55;5.90;;;2.53;;
39324;SDS011;25037;49.488;9.900;2022-12-16T07:50:39;7.13;;;2.92;;
39324;SDS011;25037;49.488;9.900;2022-12-16T07:53:24;5.82;;;2.60;;
39324;SDS011;25037;49.488;9.900;2022-12-16T07:56:09;5.70;;;2.97;;
39324;SDS011;25037;49.488;9.900;2022-12-16T07:58:54;6.10;;;2.97;;
39324;SDS011;25037;49.488;9.900;2022-12-16T08:01:38;7.13;;;3.10;;
39324;SDS011;25037;49.488;9.900;2022-12-16T08:04:22;8.13;;;3.33;;
39324;SDS011;25037;49.488;9.900;2022-12-16T08:07:06;7.78;;;3.67;;
39324;SDS011;25037;49.488;9.900;2022-12-16T08:09:50;5.47;;;3.50;;
39324;SDS011;25037;49.488;9.900;2022-12-16T08:12:45;6.10;;;3.10;;
39324;SDS011;25037;49.488;9.900;2022-12-16T08:15:34;8.85;;;3.30;;
39324;SDS011;25037;49.488;9.900;2022-12-16T08:18:19;5.93;;;2.55;;
39324;SDS011;25037;49.488;9.900;2022-12-16T08:23:47;5.30;;;3.03;;
39324;SDS011;25037;49.488;9.900;2022-12-16T08:26:31;6.07;;;2.83;;
39324;SDS011;25037;49.488;9.900;2022-12-16T08:29:15;7.80;;;3.22;;
39324;SDS011;25037;49.488;9.900;2022-12-16T08:31:59;5.95;;;3.50;;
39324;SDS011;25037;49.488;9.900;2022-12-16T08:34:43;8.65;;;3.97;;
39324;SDS011;25037;49.488;9.900;2022-12-16T08:37:27;7.10;;;3.35;;
39324;SDS011;25037;49.488;9.900;2022-12-16T08:40:12;7.63;;;3.45;;
39324;SDS011;25037;49.488;9.900;2022-12-16T08:42:56;6.38;;;3.10;;
39324;SDS011;25037;49.488;9.900;2022-12-16T08:45:40;6.40;;;2.90;;
39324;SDS011;25037;49.488;9.900;2022-12-16T08:48:25;6.72;;;3.63;;
39324;SDS011;25037;49.488;9.900;2022-12-16T08:51:10;6.68;;;3.25;;
39324;SDS011;25037;49.488;9.900;2022-12-16T08:54:08;7.00;;;3.13;;
39324;SDS011;25037;49.488;9.900;2022-12-16T08:56:52;5.78;;;3.38;;
39324;SDS011;25037;49.488;9.900;2022-12-16T08:59:36;6.70;;;3.53;;
39324;SDS011;25037;49.488;9.900;2022-12-16T09:02:21;8.77;;;3.70;;
39324;SDS011;25037;49.488;9.900;2022-12-16T09:05:05;10.27;;;3.83;;
39324;SDS011;25037;49.488;9.900;2022-12-16T09:07:49;8.68;;;4.43;;
39324;SDS011;25037;49.488;9.900;2022-12-16T09:10:33;10.88;;;4.75;;
39324;SDS011;25037;49.488;9.900;2022-12-16T09:13:17;10.13;;;5.47;;
39324;SDS011;25037;49.488;9.900;2022-12-16T09:16:01;9.10;;;4.07;;
39324;SDS011;25037;49.488;9.900;2022-12-16T09:18:46;7.57;;;4.43;;
39324;SDS011;25037;49.488;9.900;2022-12-16T09:21:30;7.53;;;4.00;;
39324;SDS011;25037;49.488;9.900;2022-12-16T09:24:14;7.72;;;4.22;;
39324;SDS011;25037;49.488;9.900;2022-12-16T09:26:59;10.65;;;4.25;;
39324;SDS011;25037;49.488;9.900;2022-12-16T09:29:43;7.80;;;4.50;;
39324;SDS011;25037;49.488;9.900;2022-12-16T09:35:12;7.38;;;3.42;;
39324;SDS011;25037;49.488;9.900;2022-12-16T09:37:56;8.55;;;4.38;;
39324;SDS011;25037;49.488;9.900;2022-12-16T09:43:41;7.97;;;4.40;;
39324;SDS011;25037;49.488;9.900;2022-12-16T09:46:49;8.25;;;4.20;;
39324;SDS011;25037;49.488;9.900;2022-12-16T09:49:51;7.00;;;4.00;;
39324;SDS011;25037;49.488;9.900;2022-12-16T09:52:51;7.28;;;4.22;;
39324;SDS011;25037;49.488;9.900;2022-12-16T09:55:43;8.32;;;4.40;;
39324;SDS011;25037;49.488;9.900;2022-12-16T09:58:29;8.63;;;4.30;;
39324;SDS011;25037;49.488;9.900;2022-12-16T10:01:22;7.18;;;4.28;;
39324;SDS011;25037;49.488;9.900;2022-12-16T10:04:08;7.38;;;4.68;;
39324;SDS011;25037;49.488;9.900;2022-12-16T10:06:53;8.15;;;4.20;;
39324;SDS011;25037;49.488;9.900;2022-12-16T10:15:51;10.90;;;4.50;;
39324;SDS011;25037;49.488;9.900;2022-12-16T10:21:22;8.60;;;4.00;;
39324;SDS011;25037;49.488;9.900;2022-12-16T10:27:15;8.35;;;4.78;;
39324;SDS011;25037;49.488;9.900;2022-12-16T10:30:05;9.88;;;4.78;;
39324;SDS011;25037;49.488;9.900;2022-12-16T10:32:56;9.38;;;4.50;;
39324;SDS011;25037;49.488;9.900;2022-12-16T10:35:41;8.82;;;4.93;;
39324;SDS011;25037;49.488;9.900;2022-12-16T10:38:36;11.82;;;4.93;;
39324;SDS011;25037;49.488;9.900;2022-12-16T10:41:28;9.05;;;5.38;;
39324;SDS011;25037;49.488;9.900;2022-12-16T10:44:24;8.68;;;5.00;;
39324;SDS011;25037;49.488;9.900;2022-12-16T10:47:14;10.00;;;5.35;;
39324;SDS011;25037;49.488;9.900;2022-12-16T10:49:58;8.65;;;5.10;;
39324;SDS011;25037;49.488;9.900;2022-12-16T10:53:08;8.88;;;5.20;;
39324;SDS011;25037;49.488;9.900;2022-12-16T11:01:29;9.60;;;4.90;;
39324;SDS011;25037;49.488;9.900;2022-12-16T11:08:00;9.38;;;5.70;;
39324;SDS011;25037;49.488;9.900;2022-12-16T11:16:11;10.20;;;5.75;;
39324;SDS011;25037;49.488;9.900;2022-12-16T11:18:59;9.68;;;5.45;;
39324;SDS011;25037;49.488;9.900;2022-12-16T11:21:43;10.32;;;5.43;;
39324;SDS011;25037;49.488;9.900;2022-12-16T11:24:29;8.18;;;5.55;;
39324;SDS011;25037;49.488;9.900;2022-12-16T11:30:25;9.90;;;6.18;;
39324;SDS011;25037;49.488;9.900;2022-12-16T11:33:24;9.45;;;5.28;;
39324;SDS011;25037;49.488;9.900;2022-12-16T11:36:12;8.45;;;5.65;;
39324;SDS011;25037;49.488;9.900;2022-12-16T11:39:03;11.48;;;5.95;;
39324;SDS011;25037;49.488;9.900;2022-12-16T11:41:51;9.20;;;5.53;;
39324;SDS011;25037;49.488;9.900;2022-12-16T11:44:41;9.55;;;5.32;;
39324;SDS011;25037;49.488;9.900;2022-12-16T11:47:45;9.88;;;6.20;;
39324;SDS011;25037;49.488;9.900;2022-12-16T11:50:33;8.30;;;5.65;;
39324;SDS011;25037;49.488;9.900;2022-12-16T11:56:22;10.70;;;5.53;;
39324;SDS011;25037;49.488;9.900;2022-12-16T12:02:17;9.48;;;5.72;;
39324;SDS011;25037;49.488;9.900;2022-12-16T12:05:11;10.80;;;6.22;;
39324;SDS011;25037;49.488;9.900;2022-12-16T12:08:15;9.63;;;5.88;;
39324;SDS011;25037;49.488;9.900;2022-12-16T12:14:16;10.18;;;5.78;;
39324;SDS011;25037;49.488;9.900;2022-12-16T12:17:14;9.55;;;5.10;;
39324;SDS011;25037;49.488;9.900;2022-12-16T12:25:52;12.40;;;6.28;;
39324;SDS011;25037;49.488;9.900;2022-12-16T12:28:56;10.80;;;5.88;;
39324;SDS011;25037;49.488;9.900;2022-12-16T12:31:51;11.32;;;5.90;;
39324;SDS011;25037;49.488;9.900;2022-12-16T12:38:05;11.35;;;6.53;;
39324;SDS011;25037;49.488;9.900;2022-12-16T12:47:31;10.00;;;5.65;;
39324;SDS011;25037;49.488;9.900;2022-12-16T12:50:22;11.15;;;5.93;;
39324;SDS011;25037;49.488;9.900;2022-12-16T12:59:35;10.05;;;5.57;;
39324;SDS011;25037;49.488;9.900;2022-12-16T13:05:50;10.30;;;5.63;;
39324;SDS011;25037;49.488;9.900;2022-12-16T13:11:20;10.13;;;5.88;;
39324;SDS011;25037;49.488;9.900;2022-12-16T13:17:15;11.57;;;5.80;;
39324;SDS011;25037;49.488;9.900;2022-12-16T13:20:00;12.02;;;5.68;;
39324;SDS011;25037;49.488;9.900;2022-12-16T13:22:46;10.50;;;6.13;;
39324;SDS011;25037;49.488;9.900;2022-12-16T13:25:38;9.07;;;5.40;;
39324;SDS011;25037;49.488;9.900;2022-12-16T13:28:35;10.02;;;5.88;;
39324;SDS011;25037;49.488;9.900;2022-12-16T13:31:23;10.32;;;5.30;;
39324;SDS011;25037;49.488;9.900;2022-12-16T13:36:57;10.43;;;5.50;;
39324;SDS011;25037;49.488;9.900;2022-12-16T13:39:43;8.93;;;5.43;;
39324;SDS011;25037;49.488;9.900;2022-12-16T13:42:58;13.55;;;5.72;;
39324;SDS011;25037;49.488;9.900;2022-12-16T13:45:43;9.60;;;5.88;;
39324;SDS011;25037;49.488;9.900;2022-12-16T13:48:39;11.15;;;6.20;;
39324;SDS011;25037;49.488;9.900;2022-12-16T13:54:30;11.40;;;6.30;;
39324;SDS011;25037;49.488;9.900;2022-12-16T13:57:19;10.90;;;5.95;;
39324;SDS011;25037;49.488;9.900;2022-12-16T14:00:15;12.20;;;5.78;;
39324;SDS011;25037;49.488;9.900;2022-12-16T14:03:08;11.55;;;5.85;;
39324;SDS011;25037;49.488;9.900;2022-12-16T14:05:57;8.83;;;5.20;;
39324;SDS011;25037;49.488;9.900;2022-12-16T14:08:43;12.50;;;6.30;;
39324;SDS011;25037;49.488;9.900;2022-12-16T14:17:15;8.23;;;5.15;;
39324;SDS011;25037;49.488;9.900;2022-12-16T14:20:13;9.02;;;5.35;;
39324;SDS011;25037;49.488;9.900;2022-12-16T14:26:14;10.45;;;5.68;;
39324;SDS011;25037;49.488;9.900;2022-12-16T14:29:00;11.32;;;5.47;;
39324;SDS011;25037;49.488;9.900;2022-12-16T14:31:49;9.90;;;5.82;;
39324;SDS011;25037;49.488;9.900;2022-12-16T14:34:34;9.68;;;5.15;;
39324;SDS011;25037;49.488;9.900;2022-12-16T14:37:27;11.95;;;6.00;;
39324;SDS011;25037;49.488;9.900;2022-12-16T14:40:24;9.90;;;5.97;;
39324;SDS011;25037;49.488;9.900;2022-12-16T14:43:15;11.88;;;6.13;;
39324;SDS011;25037;49.488;9.900;2022-12-16T14:46:00;11.48;;;5.97;;
39324;SDS011;25037;49.488;9.900;2022-12-16T14:48:45;11.07;;;6.43;;
39324;SDS011;25037;49.488;9.900;2022-12-16T14:51:32;8.45;;;5.18;;
39324;SDS011;25037;49.488;9.900;2022-12-16T14:57:18;11.50;;;5.55;;
39324;SDS011;25037;49.488;9.900;2022-12-16T15:02:50;13.43;;;5.55;;
39324;SDS011;25037;49.488;9.900;2022-12-16T15:05:47;11.18;;;5.20;;
39324;SDS011;25037;49.488;9.900;2022-12-16T15:08:33;10.93;;;6.05;;
39324;SDS011;25037;49.488;9.900;2022-12-16T15:11:23;9.73;;;5.70;;
39324;SDS011;25037;49.488;9.900;2022-12-16T15:14:09;12.75;;;6.03;;
39324;SDS011;25037;49.488;9.900;2022-12-16T15:16:56;11.02;;;5.55;;
39324;SDS011;25037;49.488;9.900;2022-12-16T15:19:42;11.57;;;6.03;;
39324;SDS011;25037;49.488;9.900;2022-12-16T15:22:32;13.50;;;6.97;;
39324;SDS011;25037;49.488;9.900;2022-12-16T15:25:24;11.43;;;6.15;;
39324;SDS011;25037;49.488;9.900;2022-12-16T15:31:34;12.25;;;6.35;;
39324;SDS011;25037;49.488;9.900;2022-12-16T15:34:28;10.57;;;6.43;;
39324;SDS011;25037;49.488;9.900;2022-12-16T15:40:21;12.18;;;6.70;;
39324;SDS011;25037;49.488;9.900;2022-12-16T15:43:20;10.98;;;6.15;;
39324;SDS011;25037;49.488;9.900;2022-12-16T15:46:19;9.57;;;6.70;;
39324;SDS011;25037;49.488;9.900;2022-12-16T15:49:04;11.77;;;7.05;;
39324;SDS011;25037;49.488;9.900;2022-12-16T15:51:59;12.60;;;7.80;;
39324;SDS011;25037;49.488;9.900;2022-12-16T15:54:50;12.90;;;5.85;;
39324;SDS011;25037;49.488;9.900;2022-12-16T15:57:36;15.43;;;7.28;;
39324;SDS011;25037;49.488;9.900;2022-12-16T16:00:30;14.02;;;7.90;;
39324;SDS011;25037;49.488;9.900;2022-12-16T16:06:16;12.02;;;6.65;;
39324;SDS011;25037;49.488;9.900;2022-12-16T16:09:15;15.18;;;7.65;;
39324;SDS011;25037;49.488;9.900;2022-12-16T16:12:03;12.52;;;7.85;;
39324;SDS011;25037;49.488;9.900;2022-12-16T16:14:48;15.18;;;8.02;;
39324;SDS011;25037;49.488;9.900;2022-12-16T16:17:32;13.60;;;7.65;;
39324;SDS011;25037;49.488;9.900;2022-12-16T16:20:16;13.43;;;7.78;;
39324;SDS011;25037;49.488;9.900;2022-12-16T16:23:00;15.10;;;8.10;;
39324;SDS011;25037;49.488;9.900;2022-12-16T16:25:46;15.68;;;8.60;;
39324;SDS011;25037;49.488;9.900;2022-12-16T16:28:31;14.88;;;8.55;;
39324;SDS011;25037;49.488;9.900;2022-12-16T16:31:16;13.20;;;8.10;;
39324;SDS011;25037;49.488;9.900;2022-12-16T16:34:00;14.68;;;8.23;;
39324;SDS011;25037;49.488;9.900;2022-12-16T16:36:46;13.25;;;8.20;;
39324;SDS011;25037;49.488;9.900;2022-12-16T16:39:34;12.02;;;7.38;;
39324;SDS011;25037;49.488;9.900;2022-12-16T16:42:19;17.92;;;8.75;;
39324;SDS011;25037;49.488;9.900;2022-12-16T16:45:03;13.65;;;8.32;;
39324;SDS011;25037;49.488;9.900;2022-12-16T16:47:47;18.27;;;8.45;;
39324;SDS011;25037;49.488;9.900;2022-12-16T16:50:31;17.88;;;9.30;;
39324;SDS011;25037;49.488;9.900;2022-12-16T16:53:16;14.23;;;8.85;;
39324;SDS011;25037;49.488;9.900;2022-12-16T16:56:00;15.75;;;8.38;;
39324;SDS011;25037;49.488;9.900;2022-12-16T16:58:45;17.10;;;8.18;;
39324;SDS011;25037;49.488;9.900;2022-12-16T17:01:30;16.58;;;8.38;;
39324;SDS011;25037;49.488;9.900;2022-12-16T17:04:14;16.50;;;8.93;;
39324;SDS011;25037;49.488;9.900;2022-12-16T17:06:58;16.95;;;7.45;;
39324;SDS011;25037;49.488;9.900;2022-12-16T17:09:42;14.55;;;8.10;;
39324;SDS011;25037;49.488;9.900;2022-12-16T17:12:33;16.58;;;8.07;;
39324;SDS011;25037;49.488;9.900;2022-12-16T17:15:22;16.25;;;9.23;;
39324;SDS011;25037;49.488;9.900;2022-12-16T17:18:08;14.98;;;9.18;;
39324;SDS011;25037;49.488;9.900;2022-12-16T17:20:52;15.90;;;8.60;;
39324;SDS011;25037;49.488;9.900;2022-12-16T17:23:37;15.10;;;8.55;;
39324;SDS011;25037;49.488;9.900;2022-12-16T17:26:21;15.73;;;8.98;;
39324;SDS011;25037;49.488;9.900;2022-12-16T17:29:07;20.38;;;9.73;;
39324;SDS011;25037;49.488;9.900;2022-12-16T17:32:00;17.05;;;9.98;;
39324;SDS011;25037;49.488;9.900;2022-12-16T17:34:44;17.58;;;10.15;;
39324;SDS011;25037;49.488;9.900;2022-12-16T17:37:28;17.08;;;9.40;;
39324;SDS011;25037;49.488;9.900;2022-12-16T17:40:12;19.88;;;9.80;;
39324;SDS011;25037;49.488;9.900;2022-12-16T17:42:56;16.90;;;9.82;;
39324;SDS011;25037;49.488;9.900;2022-12-16T17:48:25;16.58;;;10.45;;
39324;SDS011;25037;49.488;9.900;2022-12-16T17:51:09;19.13;;;10.40;;
39324;SDS011;25037;49.488;9.900;2022-12-16T17:53:53;16.50;;;10.27;;
39324;SDS011;25037;49.488;9.900;2022-12-16T17:59:21;15.23;;;9.48;;
39324;SDS011;25037;49.488;9.900;2022-12-16T18:02:05;13.50;;;8.15;;
39324;SDS011;25037;49.488;9.900;2022-12-16T18:04:51;13.70;;;7.60;;
39324;SDS011;25037;49.488;9.900;2022-12-16T18:10:19;15.98;;;9.23;;
39324;SDS011;25037;49.488;9.900;2022-12-16T18:13:03;16.25;;;9.07;;
39324;SDS011;25037;49.488;9.900;2022-12-16T18:15:51;15.98;;;9.80;;
39324;SDS011;25037;49.488;9.900;2022-12-16T18:18:36;16.58;;;9.77;;
39324;SDS011;25037;49.488;9.900;2022-12-16T18:21:20;15.35;;;10.43;;
39324;SDS011;25037;49.488;9.900;2022-12-16T18:24:05;14.48;;;9.30;;
39324;SDS011;25037;49.488;9.900;2022-12-16T18:26:50;16.83;;;9.85;;
39324;SDS011;25037;49.488;9.900;2022-12-16T18:29:34;19.40;;;9.27;;
39324;SDS011;25037;49.488;9.900;2022-12-16T18:32:18;17.80;;;9.30;;
39324;SDS011;25037;49.488;9.900;2022-12-16T18:35:02;18.33;;;9.20;;
39324;SDS011;25037;49.488;9.900;2022-12-16T18:37:47;18.48;;;9.05;;
39324;SDS011;25037;49.488;9.900;2022-12-16T18:40:31;16.42;;;8.82;;
39324;SDS011;25037;49.488;9.900;2022-12-16T18:45:59;15.88;;;8.63;;
39324;SDS011;25037;49.488;9.900;2022-12-16T18:48:43;14.38;;;8.13;;
39324;SDS011;25037;49.488;9.900;2022-12-16T18:51:28;15.70;;;8.00;;
39324;SDS011;25037;49.488;9.900;2022-12-16T18:56:56;15.85;;;9.60;;
39324;SDS011;25037;49.488;9.900;2022-12-16T19:02:24;17.58;;;7.88;;